Onweer van: 19-06-2019 13:00 tot: 23:00 waarschuwing voor: Onweer niveau: Geel info button

waarschuwing voor Onweer Meer informatie blitzortung!


Regen radar Meer informatie rain snow radar



METAR rapporten vliegvelden

   
EHVK - Volkel Rnlafb, Netherlands
Afstand tot: ZW 18 km
Gewijzigd: 19-06-2019 14:39
Bewolking  
Bewolking  
   Wind: varieert 3.7 km/h
Wind: varieert 3.7 km/h
Temperatuur: 26°C
Dauwpunt: 17°C
Vochtigheid: 58%
Barometer: 1007 hPa
Bewolking: Bewolking
Zicht: meer dan 10 km
Bewolking: Bewolking 11000 ft
EHVK 191239Z AUTO VRB02KT 9999 OVC110 26/17 Q1007 BLU 20005KT CAVOK TEMPO VRB15G25KT 4000 SHRA FEW020 SCT045CB
EDLV - Niederrhein, Germany
Afstand tot: ZO 25 km
Gewijzigd: 19-06-2019 14:50
Helder  
Helder  
   Wind: WZW 18.5 km/h
Wind: WZW 18.5 km/h
Temperatuur: 27°C
Gevoelstemperatuur: 28°C
Dauwpunt: 17°C
Vochtigheid: 54%
Barometer: 1007 hPa
Zicht: meer dan 10 km
Bewolking: Helder
EDLV 191250Z 24010KT CAVOK 27/17 Q1007
EHDL - Deelen Rnlafb, Netherlands
Afstand tot: N 35 km
Gewijzigd: 19-06-2019 14:55
Bewolking  
Bewolking  
   Wind: WZW 9.3 km/h
Wind: WZW 9.3 km/h
Temperatuur: 24°C
Dauwpunt: 15°C
Vochtigheid: 57%
Barometer: 1007 hPa
Bewolking: Bewolking
Zicht: meer dan 10 km
Bewolking: Bewolking 11000 ft
EHDL 191255Z AUTO 25005KT 200V340 9999 OVC110 24/15 Q1007 BLU
EHEH - Eindhoven Rnlafb, Netherlands
Afstand tot: ZW 48 km
Gewijzigd: 19-06-2019 14:55
Bewolking  
Bewolking  
   Wind: varieert 7.4 km/h
Wind: varieert 7.4 km/h
Temperatuur: 25°C
Dauwpunt: 17°C
Vochtigheid: 61%
Barometer: 1007 hPa
Bewolking: Bewolking
Zicht: meer dan 10 km
Bewolking: Bewolking 10000 ft
EHEH 191255Z AUTO VRB04KT 9999 OVC100 25/17 Q1007 BLU 22008KT 9999 CAVOK TEMPO 18010G20KT 4000 SHRA FEW025 SCT040CB
EHGR - Gilze-Rijen Rnla, Netherlands
Afstand tot: WZW 70 km
Gewijzigd: 19-06-2019 14:55
Bewolking  
Bewolking  
   Wind: varieert 3.7 km/h
Wind: varieert 3.7 km/h
Temperatuur: 23°C
Dauwpunt: 17°C
Vochtigheid: 69%
Barometer: 1007 hPa
Bewolking: Bewolking
Zicht: meer dan 10 km
Bewolking: Bewolking 9800 ft
EHGR 191255Z AUTO VRB02KT 9999 OVC098 23/17 Q1007 BLU VRB03KT CAVOK
EBBL - Kleine-Brogel(Ba, Belgium
Afstand tot: ZZW 71 km
Gewijzigd: 19-06-2019 14:25
Grotendeels bewolkt  
Grotendeels bewolkt  
   Wind: ZZW 11.1 km/h
Wind: ZZW 11.1 km/h
Temperatuur: 26°C
Dauwpunt: 17°C
Vochtigheid: 58%
Barometer: 1008 hPa
Bewolking: Grotendeels bewolkt
Zicht: meer dan 10 km
Bewolking: Licht bewolkt 4000 ft,
Grotendeels bewolkt 14000 ft
EBBL 191225Z 21006KT 9999 FEW040TCU BKN140 26/17 Q1008 BLU BLU

Script ontwikkeld door  Saratoga-weather.org Aangepast voor de template door  Weerstation Leuven

U vindt ons ook hier:

UK Metoffice

European Weather Network

WeatherCloud

Weather Underground

AWEKAS

Apparatuur in gebruik:

Weerstation
Davis VP2

Weerprogramma
Meteobridge

Weercomputer
Asus WL -330N3G

Webleverancier
Ongekend.nl

Davis VP2

Meteobridge

Asus WL -330N3G

Ongekend.nl